createdAt,value
2022-08-11T00:01:27.495Z,100.00
2022-08-11T00:04:26.989Z,94.99
2022-08-11T00:07:26.569Z,100.00
2022-08-11T00:10:27.160Z,100.00
2022-08-11T00:13:38.897Z,100.00
2022-08-11T00:16:35.881Z,97.72
2022-08-11T00:20:12.350Z,100.00
2022-08-11T00:23:18.302Z,100.00
2022-08-11T00:26:18.255Z,100.00
2022-08-11T00:29:15.504Z,100.00
2022-08-11T00:32:15.010Z,100.00
2022-08-11T00:35:51.481Z,100.00
2022-08-11T00:38:39.497Z,100.00
2022-08-11T00:42:15.940Z,100.00
2022-08-11T00:45:37.161Z,100.00
2022-08-11T00:49:04.128Z,100.00
2022-08-11T00:52:52.705Z,100.00
2022-08-11T00:56:31.806Z,100.00
2022-08-11T00:59:43.468Z,100.00
2022-08-11T01:03:13.437Z,100.00
2022-08-11T01:06:49.647Z,100.00
2022-08-11T01:09:52.256Z,100.00
2022-08-11T01:13:51.940Z,100.00
2022-08-11T01:17:21.214Z,100.00
2022-08-11T01:20:51.905Z,100.00
2022-08-11T01:24:43.893Z,100.00
2022-08-11T01:28:23.922Z,100.00
2022-08-11T01:32:11.392Z,100.00
2022-08-11T01:36:26.466Z,100.00
2022-08-11T01:39:44.966Z,100.00
2022-08-11T01:43:28.906Z,100.00
2022-08-11T01:46:40.590Z,100.00
2022-08-11T01:50:10.021Z,100.00
2022-08-11T01:53:42.475Z,100.00
2022-08-11T01:57:35.935Z,100.00
2022-08-11T02:00:48.615Z,100.00
2022-08-11T02:04:04.734Z,100.00
2022-08-11T02:07:19.278Z,100.00
2022-08-11T02:11:12.734Z,100.00
2022-08-11T02:14:39.540Z,100.00
2022-08-11T02:18:13.940Z,100.00
2022-08-11T02:21:35.601Z,100.00
2022-08-11T02:24:49.276Z,100.00
2022-08-11T02:28:03.582Z,100.00
2022-08-11T02:32:24.980Z,100.00
2022-08-11T02:35:42.696Z,100.00
2022-08-11T02:39:03.267Z,100.00
2022-08-11T02:42:32.681Z,100.00
2022-08-11T02:46:18.465Z,100.00
2022-08-11T02:50:02.652Z,100.00
2022-08-11T02:53:56.250Z,100.00
2022-08-11T02:57:11.444Z,100.00
2022-08-11T03:00:14.985Z,100.00
2022-08-11T03:03:46.881Z,100.00
2022-08-11T03:07:29.087Z,100.00
2022-08-11T03:11:20.159Z,100.00
2022-08-11T03:14:52.104Z,100.00
2022-08-11T03:18:25.046Z,100.00
2022-08-11T03:21:52.365Z,100.00
2022-08-11T03:25:08.793Z,100.00
2022-08-11T03:28:42.908Z,100.00
2022-08-11T03:32:10.053Z,100.00
2022-08-11T03:35:10.399Z,100.00
2022-08-11T03:38:30.529Z,100.00
2022-08-11T03:42:01.378Z,100.00
2022-08-11T03:45:40.719Z,100.00
2022-08-11T03:49:15.400Z,100.00
2022-08-11T03:52:58.062Z,100.00
2022-08-11T03:56:32.511Z,100.00
2022-08-11T04:00:23.313Z,100.00
2022-08-11T04:03:49.732Z,100.00
2022-08-11T04:07:23.688Z,100.00
2022-08-11T04:11:06.803Z,100.00
2022-08-11T04:15:18.877Z,100.00
2022-08-11T04:19:09.090Z,100.00
2022-08-11T04:22:55.073Z,100.00
2022-08-11T04:26:16.059Z,100.00
2022-08-11T04:30:02.960Z,100.00
2022-08-11T04:33:41.897Z,100.00
2022-08-11T04:37:28.867Z,100.00
2022-08-11T04:40:51.370Z,100.00
2022-08-11T04:44:04.659Z,100.00
2022-08-11T04:48:10.214Z,100.00
2022-08-11T04:52:15.528Z,100.00
2022-08-11T04:56:28.774Z,100.00
2022-08-11T05:00:19.966Z,100.00
2022-08-11T05:03:45.162Z,100.00
2022-08-11T05:07:06.424Z,100.00
2022-08-11T05:10:49.282Z,100.00
2022-08-11T05:14:08.310Z,100.00
2022-08-11T05:17:42.012Z,100.00
2022-08-11T05:21:07.949Z,100.00
2022-08-11T05:25:02.163Z,96.99
2022-08-11T05:28:32.030Z,100.00
2022-08-11T05:32:03.589Z,100.00
2022-08-11T05:35:05.240Z,100.00
2022-08-11T05:38:21.519Z,100.00
2022-08-11T05:41:42.831Z,100.00
2022-08-11T05:44:58.963Z,100.00
2022-08-11T05:48:15.897Z,100.00
2022-08-11T05:51:32.188Z,100.00
2022-08-11T05:54:48.856Z,100.00
2022-08-11T05:57:51.925Z,100.00
2022-08-11T06:00:49.557Z,100.00
2022-08-11T06:04:08.797Z,100.00
2022-08-11T06:07:11.435Z,100.00
2022-08-11T06:10:09.786Z,100.00
2022-08-11T06:13:10.086Z,100.00
2022-08-11T06:16:07.317Z,100.00
2022-08-11T06:19:05.541Z,100.00
2022-08-11T06:22:05.196Z,100.00
2022-08-11T06:25:04.791Z,100.00
2022-08-11T06:28:05.869Z,100.00
2022-08-11T06:31:13.225Z,100.00
2022-08-11T06:34:29.111Z,100.00
2022-08-11T06:38:03.827Z,100.00
2022-08-11T06:41:25.644Z,100.00
2022-08-11T06:44:39.776Z,100.00
2022-08-11T06:47:42.327Z,100.00
2022-08-11T06:50:58.209Z,100.00
2022-08-11T06:54:04.528Z,100.00
2022-08-11T06:57:31.523Z,100.00
2022-08-11T07:00:33.200Z,100.00
2022-08-11T07:03:39.217Z,100.00
2022-08-11T07:07:14.692Z,100.00
2022-08-11T07:11:23.565Z,100.00
2022-08-11T07:14:45.315Z,100.00
2022-08-11T07:18:10.978Z,100.00
2022-08-11T07:22:00.362Z,100.00
2022-08-11T07:25:19.777Z,100.00
2022-08-11T07:28:47.913Z,100.00
2022-08-11T07:31:53.898Z,100.00
2022-08-11T07:35:16.489Z,94.30
2022-08-11T07:38:25.352Z,83.20
2022-08-11T07:41:24.812Z,64.08
2022-08-11T07:44:34.359Z,56.15
2022-08-11T07:47:50.893Z,56.56
2022-08-11T07:51:06.769Z,54.65
2022-08-11T07:54:16.511Z,53.49
2022-08-11T07:57:54.064Z,55.87
2022-08-11T08:01:21.986Z,50.40
2022-08-11T08:04:39.056Z,49.29
2022-08-11T08:07:56.890Z,54.61
2022-08-11T08:11:15.286Z,51.01
2022-08-11T08:14:31.036Z,49.97
2022-08-11T08:18:20.450Z,50.21
2022-08-11T08:21:12.490Z,54.44
2022-08-11T08:24:10.684Z,48.92
2022-08-11T08:27:12.366Z,48.31
2022-08-11T08:30:28.656Z,60.53
2022-08-11T08:33:32.712Z,47.12
2022-08-11T08:36:29.619Z,50.45
2022-08-11T08:39:26.552Z,46.53
2022-08-11T08:42:43.002Z,44.87
2022-08-11T08:45:43.476Z,46.20
2022-08-11T08:48:44.487Z,58.42
2022-08-11T08:52:01.121Z,45.84
2022-08-11T08:55:05.974Z,47.10
2022-08-11T08:58:03.268Z,43.49
2022-08-11T09:01:01.206Z,45.60
2022-08-11T09:04:07.324Z,43.30
2022-08-11T09:07:18.849Z,43.80
2022-08-11T09:10:20.975Z,42.12
2022-08-11T09:13:18.202Z,39.78
2022-08-11T09:16:16.676Z,39.99
2022-08-11T09:19:20.499Z,40.39
2022-08-11T09:22:39.354Z,39.56
2022-08-11T09:25:55.298Z,38.12
2022-08-11T09:28:52.858Z,39.29
2022-08-11T09:31:50.703Z,38.35
2022-08-11T09:34:50.750Z,38.92
2022-08-11T09:38:08.794Z,39.73
2022-08-11T09:41:09.870Z,40.54
2022-08-11T09:44:27.937Z,39.34
2022-08-11T09:47:31.626Z,37.70
2022-08-11T09:50:28.882Z,37.99
2022-08-11T09:53:35.996Z,37.81
2022-08-11T09:56:54.005Z,43.17
2022-08-11T09:59:53.530Z,37.59
2022-08-11T10:03:21.291Z,36.77
2022-08-11T10:06:37.292Z,37.30
2022-08-11T10:09:58.980Z,37.28
2022-08-11T10:14:30.792Z,36.40
2022-08-11T10:16:37.225Z,36.99
2022-08-11T10:19:38.724Z,36.65
2022-08-11T10:22:55.194Z,36.87
2022-08-11T10:26:15.541Z,37.42
2022-08-11T10:29:36.923Z,37.14
2022-08-11T10:32:59.442Z,35.82
2022-08-11T10:35:59.148Z,35.85
2022-08-11T10:38:59.335Z,35.73
2022-08-11T10:42:25.811Z,36.48
2022-08-11T10:45:55.465Z,35.93
2022-08-11T10:48:52.548Z,35.48
2022-08-11T10:52:08.288Z,35.75
2022-08-11T10:55:24.182Z,35.59
2022-08-11T10:58:41.418Z,37.38
2022-08-11T11:01:44.119Z,35.29
2022-08-11T11:05:26.164Z,35.48
2022-08-11T11:12:42.778Z,33.96
2022-08-11T11:16:04.776Z,34.88
2022-08-11T11:19:06.268Z,34.54
2022-08-11T11:22:23.542Z,34.77
2022-08-11T11:26:27.427Z,35.58
2022-08-11T11:29:57.831Z,34.17
2022-08-11T11:33:14.150Z,33.36
2022-08-11T11:36:45.684Z,32.91
2022-08-11T11:39:43.886Z,36.03
2022-08-11T11:42:44.259Z,32.14
2022-08-11T11:45:42.128Z,32.46
2022-08-11T11:48:40.509Z,33.06
2022-08-11T11:51:38.162Z,32.08
2022-08-11T11:54:38.705Z,32.30
2022-08-11T11:57:58.527Z,31.43
2022-08-11T12:01:15.568Z,31.50
2022-08-11T12:04:15.292Z,30.67
2022-08-11T12:07:31.190Z,31.12
2022-08-11T12:10:28.954Z,30.64
2022-08-11T12:13:40.915Z,34.66
2022-08-11T12:16:41.775Z,30.29
2022-08-11T12:19:38.720Z,28.95
2022-08-11T12:23:04.345Z,30.31
2022-08-11T12:26:27.804Z,29.15
2022-08-11T12:29:27.274Z,29.31
2022-08-11T12:32:30.195Z,28.98
2022-08-11T12:35:27.323Z,27.94
2022-08-11T12:38:26.054Z,28.88
2022-08-11T12:41:46.331Z,29.20
2022-08-11T12:45:02.665Z,28.37
2022-08-11T12:49:00.784Z,29.15
2022-08-11T12:52:13.551Z,28.86
2022-08-11T12:55:42.414Z,28.29
2022-08-11T12:59:20.023Z,29.78
2022-08-11T13:02:43.881Z,28.33
2022-08-11T13:05:47.166Z,29.95
2022-08-11T13:08:45.665Z,27.39
2022-08-11T13:12:02.983Z,27.63
2022-08-11T13:15:01.636Z,28.54
2022-08-11T13:18:00.593Z,28.58
2022-08-11T13:20:58.347Z,29.38
2022-08-11T13:24:00.873Z,30.75
2022-08-11T13:27:00.016Z,28.98
2022-08-11T13:30:17.141Z,28.81
2022-08-11T13:33:16.871Z,27.83
2022-08-11T13:36:18.613Z,28.62
2022-08-11T13:39:16.268Z,28.32
2022-08-11T13:42:18.082Z,29.08
2022-08-11T13:45:15.873Z,29.08
2022-08-11T13:48:14.065Z,27.59
2022-08-11T13:51:34.548Z,29.80
2022-08-11T13:54:38.416Z,28.48
2022-08-11T13:58:08.960Z,28.18
2022-08-11T14:00:54.271Z,28.76
2022-08-11T14:04:30.413Z,27.98
2022-08-11T14:07:14.684Z,28.02
2022-08-11T14:10:16.117Z,28.16
2022-08-11T14:13:42.590Z,27.21
2022-08-11T14:16:47.843Z,30.28
2022-08-11T14:19:50.483Z,29.94
2022-08-11T14:22:51.267Z,28.34
2022-08-11T14:26:07.357Z,27.75
2022-08-11T14:29:13.173Z,26.46
2022-08-11T14:32:14.088Z,28.29
2022-08-11T14:35:11.635Z,28.41
2022-08-11T14:38:10.467Z,29.43
2022-08-11T14:41:27.269Z,30.07
2022-08-11T14:44:44.597Z,27.29
2022-08-11T14:47:44.471Z,27.66
2022-08-11T14:50:41.361Z,28.63
2022-08-11T14:53:38.659Z,28.12
2022-08-11T14:56:38.746Z,28.13
2022-08-11T14:59:38.034Z,28.93
2022-08-11T15:02:58.318Z,27.89
2022-08-11T15:06:02.093Z,28.28
2022-08-11T15:09:00.283Z,28.05
2022-08-11T15:12:32.307Z,29.09
2022-08-11T15:15:45.497Z,28.10
2022-08-11T15:18:42.351Z,28.48
2022-08-11T15:21:57.881Z,29.58
2022-08-11T15:24:54.750Z,28.99
2022-08-11T15:28:12.542Z,28.97
2022-08-11T15:31:42.358Z,30.82
2022-08-11T15:35:25.858Z,30.36
2022-08-11T15:38:36.229Z,28.86
2022-08-11T15:42:09.717Z,30.55
2022-08-11T15:45:28.937Z,29.50
2022-08-11T15:48:48.365Z,29.65
2022-08-11T15:52:03.417Z,29.63
2022-08-11T15:55:05.199Z,29.35
2022-08-11T15:58:28.273Z,29.66
2022-08-11T16:01:44.912Z,30.00
2022-08-11T16:04:43.572Z,30.56
2022-08-11T16:07:41.644Z,30.58
2022-08-11T16:10:39.257Z,30.41
2022-08-11T16:13:40.399Z,29.92
2022-08-11T16:16:39.329Z,30.42
2022-08-11T16:19:37.523Z,30.88
2022-08-11T16:22:43.178Z,30.19
2022-08-11T16:27:08.912Z,30.16
2022-08-11T16:29:18.521Z,29.14
2022-08-11T16:32:23.411Z,29.33
2022-08-11T16:35:43.290Z,29.17
2022-08-11T16:38:41.931Z,29.15
2022-08-11T16:42:01.281Z,29.11
2022-08-11T16:45:19.206Z,30.18
2022-08-11T16:48:36.664Z,29.79
2022-08-11T16:51:33.568Z,29.21
2022-08-11T16:54:33.737Z,29.66
2022-08-11T16:57:52.815Z,29.59
2022-08-11T17:00:51.992Z,30.25
2022-08-11T17:04:57.072Z,29.94
2022-08-11T17:08:14.832Z,30.42
2022-08-11T17:11:31.159Z,30.75
2022-08-11T17:15:00.803Z,31.09
2022-08-11T17:17:59.498Z,30.64
2022-08-11T17:20:56.856Z,30.68
2022-08-11T17:24:07.993Z,31.13
2022-08-11T17:27:08.835Z,30.62
2022-08-11T17:30:07.924Z,31.58
2022-08-11T17:33:24.273Z,29.76
2022-08-11T17:36:24.019Z,31.29
2022-08-11T17:39:31.682Z,30.63
2022-08-11T17:42:50.571Z,31.29
2022-08-11T17:46:08.160Z,31.94
2022-08-11T17:49:08.332Z,31.40
2022-08-11T17:52:45.958Z,31.66
2022-08-11T17:56:02.029Z,32.61
2022-08-11T17:59:19.788Z,32.59
2022-08-11T18:02:37.238Z,32.16
2022-08-11T18:05:37.779Z,31.26
2022-08-11T18:08:58.948Z,33.13
2022-08-11T18:12:15.529Z,32.90
2022-08-11T18:15:32.035Z,34.98
2022-08-11T18:18:48.825Z,35.23
2022-08-11T18:22:15.331Z,36.95
2022-08-11T18:25:44.689Z,36.27
2022-08-11T18:29:07.101Z,37.48
2022-08-11T18:32:29.958Z,37.48
2022-08-11T18:35:51.365Z,39.19
2022-08-11T18:39:08.585Z,39.15
2022-08-11T18:42:32.592Z,39.21
2022-08-11T18:45:48.314Z,40.11
2022-08-11T18:50:03.505Z,42.25
2022-08-11T18:53:15.669Z,43.42
2022-08-11T18:56:32.833Z,44.84
2022-08-11T18:59:55.289Z,46.40
2022-08-11T19:03:11.626Z,47.35
2022-08-11T19:06:38.395Z,48.85
2022-08-11T19:10:00.764Z,50.47
2022-08-11T19:13:17.385Z,51.32
2022-08-11T19:16:34.890Z,52.43
2022-08-11T19:19:52.647Z,57.56
2022-08-11T19:23:10.930Z,56.30
2022-08-11T19:26:27.835Z,56.38
2022-08-11T19:30:07.889Z,58.12
2022-08-11T19:33:22.854Z,58.88
2022-08-11T19:36:59.830Z,61.13
2022-08-11T19:40:27.376Z,60.91
2022-08-11T19:43:45.181Z,61.01
2022-08-11T19:47:02.679Z,59.93
2022-08-11T19:50:24.670Z,57.95
2022-08-11T19:53:41.017Z,59.13
2022-08-11T19:56:57.375Z,58.95
2022-08-11T20:00:13.273Z,62.14
2022-08-11T20:03:31.758Z,50.41
2022-08-11T20:06:48.187Z,61.14
2022-08-11T20:10:06.662Z,65.32
2022-08-11T20:13:24.823Z,68.01
2022-08-11T20:16:43.976Z,65.49
2022-08-11T20:23:25.457Z,57.54
2022-08-11T20:26:41.276Z,56.74
2022-08-11T20:29:56.812Z,51.99
2022-08-11T20:33:12.021Z,56.83
2022-08-11T20:36:29.241Z,59.61
2022-08-11T20:39:46.449Z,55.53
2022-08-11T20:43:02.916Z,54.29
2022-08-11T20:46:22.002Z,60.46
2022-08-11T20:49:45.960Z,53.97
2022-08-11T20:53:10.709Z,53.18
2022-08-11T20:56:28.760Z,56.57
2022-08-11T20:59:56.406Z,56.88
2022-08-11T21:03:13.746Z,59.29
2022-08-11T21:06:50.889Z,59.30
2022-08-11T21:10:17.225Z,61.41
2022-08-11T21:13:36.964Z,59.93
2022-08-11T21:16:56.059Z,59.42
2022-08-11T21:20:21.133Z,64.96
2022-08-11T21:23:38.139Z,61.65
2022-08-11T21:27:02.984Z,59.13
2022-08-11T21:30:21.012Z,60.95
2022-08-11T21:33:37.876Z,61.64
2022-08-11T21:36:53.364Z,63.17
2022-08-11T21:40:16.853Z,65.21
2022-08-11T21:43:34.969Z,65.41
2022-08-11T21:46:51.999Z,61.89
2022-08-11T21:50:07.734Z,64.53
2022-08-11T21:53:24.097Z,69.54
2022-08-11T21:56:41.991Z,65.23
2022-08-11T22:00:18.396Z,65.25
2022-08-11T22:03:39.559Z,71.78
2022-08-11T22:07:08.606Z,70.14
2022-08-11T22:10:41.440Z,73.09
2022-08-11T22:14:06.052Z,74.02
2022-08-11T22:17:23.175Z,77.42
2022-08-11T22:20:39.504Z,70.72
2022-08-11T22:23:59.371Z,74.52
2022-08-11T22:27:15.047Z,83.35
2022-08-11T22:30:30.943Z,84.31
2022-08-11T22:34:00.126Z,85.18
2022-08-11T22:37:27.516Z,87.26
2022-08-11T22:40:43.323Z,84.68
2022-08-11T22:43:58.534Z,82.42
2022-08-11T22:47:19.196Z,86.49
2022-08-11T22:50:35.426Z,81.82
2022-08-11T22:53:58.235Z,81.70
2022-08-11T22:57:14.862Z,84.71
2022-08-11T23:00:30.815Z,86.30
2022-08-11T23:03:46.974Z,79.07
2022-08-11T23:07:02.892Z,85.05
2022-08-11T23:10:18.828Z,86.62
2022-08-11T23:13:34.645Z,89.68
2022-08-11T23:16:49.819Z,93.00
2022-08-11T23:20:15.155Z,88.35
2022-08-11T23:23:42.760Z,89.89
2022-08-11T23:27:00.218Z,90.83
2022-08-11T23:30:19.233Z,89.22
2022-08-11T23:33:37.539Z,92.50
2022-08-11T23:36:52.864Z,93.54
2022-08-11T23:40:08.388Z,94.92
2022-08-11T23:43:24.346Z,92.26
2022-08-11T23:46:42.165Z,94.22
2022-08-11T23:49:58.595Z,98.17
2022-08-11T23:53:15.793Z,96.26
2022-08-11T23:56:32.332Z,93.57
2022-08-11T23:59:48.363Z,96.04
